Time;durP1;ratioP1;P1;durP2;ratioP2;P2;SDS_P1;SDS_P2;PMS_P1;PMS_P2;Temp;Humidity;BMP_temperature;BMP_pressure;BME280_temperature;BME280_humidity;BME280_pressure;Samples;Min_cycle;Max_cycle;Signal;HPM_P1;HPM_P2
2022/12/12 00:02:15;;;;;;;28.00;14.80;;;-1.00;99.90;;;;;;5063251;28;20635;-52
2022/12/12 00:04:42;;;;;;;25.87;13.53;;;-1.00;99.90;;;;;;5060894;28;20197;-55
2022/12/12 00:07:09;;;;;;;27.93;13.77;;;-1.00;99.90;;;;;;5050334;28;20225;-44
2022/12/12 00:09:36;;;;;;;25.47;14.40;;;-1.00;99.90;;;;;;5053034;28;20215;-46
2022/12/12 00:12:05;;;;;;;24.83;13.87;;;-1.00;99.90;;;;;;5063653;28;20226;-48
2022/12/12 00:14:32;;;;;;;21.70;12.73;;;-1.00;99.90;;;;;;5051609;28;20466;-53
2022/12/12 00:16:59;;;;;;;23.60;13.83;;;-1.00;99.90;;;;;;5061611;28;20279;-49
2022/12/12 00:19:27;;;;;;;28.60;13.53;;;-1.00;99.90;;;;;;5054218;28;20227;-55
2022/12/12 00:21:54;;;;;;;25.20;13.23;;;-1.00;99.90;;;;;;5055612;28;20222;-51
2022/12/12 00:24:21;;;;;;;24.23;14.30;;;-1.00;99.90;;;;;;5044707;28;20209;-61
2022/12/12 00:26:47;;;;;;;27.50;13.97;;;-1.00;99.90;;;;;;5057157;28;20226;-44
2022/12/12 00:29:16;;;;;;;25.03;13.87;;;-1.00;99.90;;;;;;5060999;28;20223;-61
2022/12/12 00:31:43;;;;;;;26.73;14.50;;;-1.00;99.90;;;;;;5053736;28;20804;-49
2022/12/12 00:34:12;;;;;;;28.33;13.50;;;-1.00;99.90;;;;;;5064109;28;20227;-45
2022/12/12 00:36:39;;;;;;;25.03;13.47;;;-1.00;99.90;;;;;;5060361;28;20932;-47
2022/12/12 00:39:07;;;;;;;25.17;14.40;;;-1.00;99.90;;;;;;5049218;28;20234;-46
2022/12/12 00:41:36;;;;;;;19.90;12.43;;;-0.90;99.90;;;;;;5053034;28;20300;-51
2022/12/12 00:44:03;;;;;;;23.40;13.77;;;-0.90;99.90;;;;;;5063740;28;20301;-46
2022/12/12 00:46:32;;;;;;;24.57;14.37;;;-0.90;99.90;;;;;;5051363;28;20225;-60
2022/12/12 00:48:59;;;;;;;28.67;14.50;;;-0.90;99.90;;;;;;5064124;28;20534;-52
2022/12/12 00:51:28;;;;;;;26.30;13.73;;;-0.90;99.90;;;;;;5060578;28;20226;-58
2022/12/12 00:53:57;;;;;;;26.90;13.63;;;-1.00;99.90;;;;;;5049081;28;20689;-44
2022/12/12 00:56:24;;;;;;;25.30;12.70;;;-1.00;99.90;;;;;;5057423;28;20294;-60
2022/12/12 00:58:52;;;;;;;24.43;13.00;;;-1.10;99.90;;;;;;5060752;28;20619;-44
2022/12/12 01:01:22;;;;;;;28.40;13.97;;;-1.00;99.90;;;;;;5059388;28;20227;-59
2022/12/12 01:03:50;;;;;;;24.87;14.17;;;-1.00;99.90;;;;;;5056615;28;20320;-47
2022/12/12 01:06:17;;;;;;;27.73;13.43;;;-1.00;99.90;;;;;;5062255;28;20203;-58
2022/12/12 01:08:44;;;;;;;24.73;13.97;;;-1.00;99.90;;;;;;5047478;28;24240;-47
2022/12/12 01:11:13;;;;;;;22.90;13.47;;;-1.00;99.90;;;;;;5055531;28;20228;-58
2022/12/12 01:13:40;;;;;;;27.50;14.40;;;-1.10;99.90;;;;;;5053670;28;20199;-46
2022/12/12 01:16:08;;;;;;;24.00;13.73;;;-1.10;99.90;;;;;;5058551;28;20207;-48
2022/12/12 01:18:36;;;;;;;24.47;12.77;;;-1.20;99.90;;;;;;5052139;28;20926;-49
2022/12/12 01:21:07;;;;;;;24.77;13.60;;;-1.20;99.90;;;;;;5063298;28;20217;-45
2022/12/12 01:23:34;;;;;;;28.70;13.17;;;-1.20;99.90;;;;;;5058560;28;20201;-45
2022/12/12 01:26:02;;;;;;;24.17;13.20;;;-1.20;99.90;;;;;;5048821;28;20211;-47
2022/12/12 01:28:28;;;;;;;27.43;13.23;;;-1.20;99.90;;;;;;5052833;28;20820;-49
2022/12/12 01:30:58;;;;;;;23.67;13.40;;;-1.30;99.90;;;;;;5058607;28;20220;-49
2022/12/12 01:33:25;;;;;;;25.10;13.77;;;-1.30;99.90;;;;;;5052925;28;20232;-60
2022/12/12 01:35:52;;;;;;;24.23;13.67;;;-1.40;99.90;;;;;;5060814;28;20213;-52
2022/12/12 01:38:23;;;;;;;25.70;14.13;;;-1.40;99.90;;;;;;5060337;28;20201;-60
2022/12/12 01:40:51;;;;;;;23.27;13.53;;;-1.50;99.90;;;;;;5048615;28;20225;-48
2022/12/12 01:43:19;;;;;;;26.40;14.57;;;-1.50;99.90;;;;;;5058512;28;20193;-60
2022/12/12 01:46:34;;;;;;;23.67;13.00;;;-1.50;99.90;;;;;;5062955;28;20515;-51
2022/12/12 01:49:05;;;;;;;27.70;12.87;;;-1.60;99.90;;;;;;5057630;28;20216;-44
2022/12/12 01:51:32;;;;;;;21.30;13.03;;;-1.70;99.90;;;;;;5062832;28;20929;-49
2022/12/12 01:54:07;;;;;;;27.80;13.37;;;-1.70;99.90;;;;;;5059403;28;20231;-45
2022/12/12 01:56:35;;;;;;;25.13;13.10;;;-1.70;99.90;;;;;;5048918;28;20191;-45
2022/12/12 01:59:05;;;;;;;25.40;13.90;;;-1.80;99.90;;;;;;5059927;28;20285;-49
2022/12/12 02:01:32;;;;;;;31.03;13.17;;;-1.80;99.90;;;;;;5055896;28;20290;-46
2022/12/12 02:04:01;;;;;;;21.90;12.90;;;-1.90;99.90;;;;;;5064537;28;20207;-52
2022/12/12 02:06:29;;;;;;;23.00;12.83;;;-1.80;99.90;;;;;;5054667;28;20201;-53
2022/12/12 02:09:03;;;;;;;23.90;14.33;;;-1.90;99.90;;;;;;5066560;28;20601;-51
2022/12/12 02:11:32;;;;;;;24.50;13.53;;;-2.00;99.90;;;;;;5048147;28;20211;-44
2022/12/12 02:13:59;;;;;;;27.80;14.47;;;-2.00;99.90;;;;;;5058738;28;20203;-47
2022/12/12 02:16:39;;;;;;;27.03;12.97;;;-2.00;99.90;;;;;;5063093;28;20227;-58
2022/12/12 02:19:22;;;;;;;24.30;13.10;;;-2.10;99.90;;;;;;5066203;28;20203;-46
2022/12/12 02:21:55;;;;;;;23.07;12.83;;;-2.10;99.90;;;;;;5063249;28;20701;-45
2022/12/12 02:25:00;;;;;;;22.27;11.67;;;-2.10;99.90;;;;;;5063066;28;20199;-56
2022/12/12 02:27:46;;;;;;;26.53;13.23;;;-2.10;99.90;;;;;;5045953;28;20299;-58
2022/12/12 02:30:24;;;;;;;23.50;12.70;;;-2.20;99.90;;;;;;5052496;28;20238;-60
2022/12/12 02:33:10;;;;;;;19.00;11.13;;;-2.30;99.90;;;;;;5065471;28;20207;-46
2022/12/12 02:35:48;;;;;;;22.30;12.57;;;-2.30;99.90;;;;;;5054430;28;20190;-45
2022/12/12 02:38:30;;;;;;;23.37;12.83;;;-2.30;99.90;;;;;;5062913;28;20668;-57
2022/12/12 02:41:08;;;;;;;25.03;13.60;;;-2.30;99.90;;;;;;5060644;28;20223;-44
2022/12/12 02:43:51;;;;;;;24.93;13.53;;;-2.40;99.90;;;;;;5049037;28;20192;-53
2022/12/12 02:46:24;;;;;;;30.33;14.73;;;-2.50;99.90;;;;;;5054927;28;20207;-57
2022/12/12 02:48:59;;;;;;;22.67;12.00;;;-2.60;99.90;;;;;;5065429;28;20760;-44
2022/12/12 02:51:27;;;;;;;24.57;12.37;;;-2.60;99.90;;;;;;5053458;28;20226;-57
2022/12/12 02:53:54;;;;;;;28.50;13.33;;;-2.70;99.90;;;;;;5063601;28;20203;-49
2022/12/12 02:56:44;;;;;;;21.07;12.37;;;-2.70;99.90;;;;;;5046780;28;20285;-58
2022/12/12 02:59:14;;;;;;;25.63;13.20;;;-2.70;99.90;;;;;;5056066;28;20237;-57
2022/12/12 03:01:50;;;;;;;20.50;11.87;;;-2.60;99.90;;;;;;5056131;28;20238;-44
2022/12/12 03:07:46;;;;;;;25.37;12.73;;;-2.60;99.90;;;;;;5007929;28;20220;-58
2022/12/12 03:10:25;;;;;;;23.27;11.67;;;-2.70;99.90;;;;;;5021995;28;20207;-58
2022/12/12 03:13:00;;;;;;;22.93;13.03;;;-2.80;99.90;;;;;;5036207;28;20295;-49
2022/12/12 03:15:36;;;;;;;22.67;12.67;;;-2.80;99.90;;;;;;5056929;28;20656;-58
2022/12/12 03:18:13;;;;;;;25.47;12.57;;;-2.90;99.90;;;;;;5058375;28;20209;-45
2022/12/12 03:20:48;;;;;;;26.23;12.53;;;-2.90;99.90;;;;;;5062817;28;20920;-53
2022/12/12 03:23:21;;;;;;;26.53;12.63;;;-2.90;99.90;;;;;;5051775;28;20205;-58
2022/12/12 03:25:54;;;;;;;24.50;13.90;;;-2.90;99.90;;;;;;5063591;28;20221;-45
2022/12/12 03:28:29;;;;;;;28.70;13.27;;;-3.00;99.90;;;;;;5046410;28;20228;-59
2022/12/12 03:31:01;;;;;;;24.67;13.17;;;-3.00;99.90;;;;;;5064662;28;20234;-47
2022/12/12 03:33:34;;;;;;;25.10;13.23;;;-3.00;99.90;;;;;;5053955;28;20860;-51
2022/12/12 03:36:07;;;;;;;26.47;13.10;;;-3.00;99.90;;;;;;5064921;28;20206;-53
2022/12/12 03:38:37;;;;;;;25.70;12.87;;;-3.00;99.90;;;;;;5050070;28;20202;-49
2022/12/12 03:41:08;;;;;;;29.13;14.07;;;-3.00;99.90;;;;;;5060650;28;20718;-56
2022/12/12 03:43:40;;;;;;;25.90;12.77;;;-3.00;99.90;;;;;;5064522;28;20198;-53
2022/12/12 03:46:12;;;;;;;23.43;12.23;;;-3.00;99.90;;;;;;5046129;28;20281;-58
2022/12/12 03:48:42;;;;;;;25.03;14.23;;;-3.00;99.90;;;;;;5057543;28;20226;-53
2022/12/12 03:51:16;;;;;;;29.73;14.33;;;-3.00;99.90;;;;;;5060505;28;20233;-59
2022/12/12 03:53:46;;;;;;;25.00;12.73;;;-3.10;99.90;;;;;;5062679;28;20213;-45
2022/12/12 03:56:21;;;;;;;25.97;13.40;;;-3.10;99.90;;;;;;5049618;28;20201;-48
2022/12/12 03:58:53;;;;;;;28.93;13.27;;;-3.20;99.90;;;;;;5064519;28;20198;-45
2022/12/12 04:01:25;;;;;;;24.10;13.50;;;-3.20;99.90;;;;;;5046561;28;20226;-44
2022/12/12 04:03:58;;;;;;;28.27;13.73;;;-3.30;99.90;;;;;;5062789;28;20562;-58
2022/12/12 04:06:33;;;;;;;26.50;13.50;;;-3.30;99.90;;;;;;5058770;28;20213;-44
2022/12/12 04:15:00;;;;;;;25.20;12.17;;;-3.20;99.90;;;;;;5064462;28;20295;-45
2022/12/12 04:17:38;;;;;;;28.27;13.43;;;-3.20;99.90;;;;;;5050580;28;20206;-49
2022/12/12 04:23:21;;;;;;;29.13;13.23;;;-3.30;99.90;;;;;;5015157;28;20219;-47
2022/12/12 04:28:53;;;;;;;28.63;13.60;;;-3.30;99.90;;;;;;5064054;28;20230;-44
2022/12/12 04:31:25;;;;;;;22.33;13.30;;;-3.30;99.90;;;;;;5037691;28;20841;-50
2022/12/12 04:33:58;;;;;;;24.63;12.80;;;-3.30;99.90;;;;;;5062802;28;20215;-56
2022/12/12 04:36:27;;;;;;;25.50;12.93;;;-3.30;99.90;;;;;;5054811;28;20260;-45
2022/12/12 04:38:56;;;;;;;27.57;14.87;;;-3.30;99.90;;;;;;5063306;28;20195;-56
2022/12/12 04:41:26;;;;;;;28.87;14.93;;;-3.30;99.90;;;;;;5053013;28;20229;-50
2022/12/12 04:43:55;;;;;;;30.33;15.30;;;-3.30;99.90;;;;;;5062989;28;20573;-58
2022/12/12 04:46:26;;;;;;;32.07;14.87;;;-3.30;99.90;;;;;;5061474;28;20197;-43
2022/12/12 04:48:57;;;;;;;31.73;15.57;;;-3.30;99.90;;;;;;5048176;28;20219;-58
2022/12/12 04:51:29;;;;;;;31.23;15.80;;;-3.30;99.90;;;;;;5054557;28;22978;-44
2022/12/12 04:54:04;;;;;;;29.80;15.17;;;-3.30;99.90;;;;;;5061737;28;20194;-56
2022/12/12 04:56:36;;;;;;;29.97;14.70;;;-3.30;99.90;;;;;;5052232;28;20563;-44
2022/12/12 04:59:04;;;;;;;25.10;13.67;;;-3.30;99.90;;;;;;5060584;28;20198;-59
2022/12/12 05:01:38;;;;;;;24.93;13.80;;;-3.30;99.90;;;;;;5062888;28;20214;-49
2022/12/12 05:04:09;;;;;;;28.33;13.97;;;-3.30;99.90;;;;;;5040280;28;20213;-58
2022/12/12 05:06:43;;;;;;;29.90;14.80;;;-3.30;99.90;;;;;;5055700;28;20699;-45
2022/12/12 05:09:12;;;;;;;30.47;15.03;;;-3.30;99.90;;;;;;5060964;28;20225;-55
2022/12/12 05:11:41;;;;;;;26.67;14.27;;;-3.40;99.90;;;;;;5062391;28;20226;-53
2022/12/12 05:14:08;;;;;;;30.17;15.30;;;-3.40;99.90;;;;;;5050534;28;20575;-59
2022/12/12 05:16:39;;;;;;;32.20;15.17;;;-3.40;99.90;;;;;;5063197;28;20264;-51
2022/12/12 05:19:06;;;;;;;30.17;14.90;;;-3.30;99.90;;;;;;5049278;28;20681;-60
2022/12/12 05:21:33;;;;;;;30.73;15.03;;;-3.30;99.90;;;;;;5061817;28;20233;-44
2022/12/12 05:24:00;;;;;;;31.13;14.47;;;-3.30;99.90;;;;;;5057589;28;20225;-53
2022/12/12 05:26:30;;;;;;;33.50;15.27;;;-3.30;99.90;;;;;;5065588;28;20191;-48
2022/12/12 05:28:57;;;;;;;29.33;13.67;;;-3.40;99.90;;;;;;5056891;28;20250;-57
2022/12/12 05:31:24;;;;;;;28.87;14.63;;;-3.40;99.90;;;;;;5067042;28;20260;-48
2022/12/12 05:33:51;;;;;;;26.90;13.63;;;-3.40;99.90;;;;;;5066463;28;20210;-53
2022/12/12 05:36:18;;;;;;;25.47;13.20;;;-3.40;99.90;;;;;;5049431;28;20904;-44
2022/12/12 05:38:45;;;;;;;28.23;14.33;;;-3.50;99.90;;;;;;5058866;28;20195;-47
2022/12/12 05:41:12;;;;;;;32.80;15.80;;;-3.60;99.90;;;;;;5052556;28;20923;-51
2022/12/12 05:43:40;;;;;;;24.63;13.57;;;-3.50;99.90;;;;;;5058517;28;20724;-47
2022/12/12 05:46:07;;;;;;;26.50;13.30;;;-3.50;99.90;;;;;;5062758;28;20202;-60
2022/12/12 05:48:35;;;;;;;26.43;13.87;;;-3.60;99.90;;;;;;5066634;28;20879;-44
2022/12/12 05:51:03;;;;;;;27.97;12.33;;;-3.60;99.90;;;;;;5048518;28;20222;-60
2022/12/12 05:53:30;;;;;;;28.17;13.77;;;-3.70;99.90;;;;;;5054618;28;20206;-47
2022/12/12 05:55:57;;;;;;;26.40;13.90;;;-3.80;99.90;;;;;;5060650;28;20606;-60
2022/12/12 05:58:24;;;;;;;26.90;14.23;;;-3.80;99.90;;;;;;5063463;28;20187;-44
2022/12/12 06:00:52;;;;;;;30.70;14.73;;;-3.80;99.90;;;;;;5056708;28;20230;-52
2022/12/12 06:03:19;;;;;;;30.47;15.93;;;-3.90;99.90;;;;;;5053905;28;20207;-48
2022/12/12 06:05:46;;;;;;;27.93;15.50;;;-3.90;99.90;;;;;;5068831;28;20576;-44
2022/12/12 06:08:13;;;;;;;33.77;14.90;;;-3.90;99.90;;;;;;5034410;28;20713;-43
2022/12/12 06:10:40;;;;;;;29.67;15.03;;;-3.90;99.90;;;;;;5067148;28;20218;-47
2022/12/12 06:13:07;;;;;;;25.63;13.23;;;-3.90;99.90;;;;;;5058165;28;20191;-57
2022/12/12 06:15:34;;;;;;;25.57;12.23;;;-4.00;99.90;;;;;;5053995;28;20203;-47
2022/12/12 06:18:02;;;;;;;25.80;12.70;;;-4.00;99.90;;;;;;5062220;28;20568;-58
2022/12/12 06:20:30;;;;;;;27.70;13.53;;;-4.00;99.90;;;;;;5059362;28;20209;-54
2022/12/12 06:22:56;;;;;;;27.03;13.03;;;-4.00;99.90;;;;;;5040220;28;20217;-60
2022/12/12 06:25:24;;;;;;;27.93;13.67;;;-4.00;99.90;;;;;;5058038;28;20274;-50
2022/12/12 06:27:51;;;;;;;26.93;13.53;;;-4.00;99.90;;;;;;5063622;28;20199;-57
2022/12/12 06:30:18;;;;;;;25.17;13.10;;;-4.00;99.90;;;;;;5052377;28;20235;-52
2022/12/12 06:32:45;;;;;;;30.70;14.10;;;-4.00;99.90;;;;;;5065600;28;20202;-46
2022/12/12 06:35:15;;;;;;;32.60;14.00;;;-4.00;99.90;;;;;;5057322;28;20203;-47
2022/12/12 06:37:42;;;;;;;27.37;13.73;;;-4.00;99.90;;;;;;5047131;28;20199;-52
2022/12/12 06:40:10;;;;;;;30.80;14.83;;;-4.10;99.90;;;;;;5053586;28;20234;-57
2022/12/12 06:42:37;;;;;;;28.60;14.53;;;-4.10;99.90;;;;;;5058641;28;20205;-49
2022/12/12 06:45:05;;;;;;;29.60;14.47;;;-4.00;99.90;;;;;;5054219;28;20210;-58
2022/12/12 06:47:31;;;;;;;28.70;14.17;;;-4.00;99.90;;;;;;5049768;28;20198;-45
2022/12/12 06:49:59;;;;;;;27.07;13.43;;;-4.00;99.90;;;;;;5058499;28;20220;-58
2022/12/12 06:52:27;;;;;;;34.17;13.93;;;-4.00;99.90;;;;;;5057403;28;20203;-49
2022/12/12 06:54:54;;;;;;;27.23;14.00;;;-4.10;99.90;;;;;;5041727;28;20221;-58
2022/12/12 06:57:20;;;;;;;26.47;13.57;;;-4.00;99.90;;;;;;5046055;28;20194;-49
2022/12/12 06:59:50;;;;;;;32.77;14.00;;;-4.10;99.90;;;;;;5059250;28;20269;-50
2022/12/12 07:02:16;;;;;;;27.27;13.37;;;-4.20;99.90;;;;;;5046499;28;20222;-50
2022/12/12 07:04:43;;;;;;;28.00;13.67;;;-4.30;99.90;;;;;;5062624;28;20194;-46
2022/12/12 07:07:10;;;;;;;29.03;14.07;;;-4.30;99.90;;;;;;5055863;28;20421;-45
2022/12/12 07:09:38;;;;;;;31.70;15.80;;;-4.40;99.90;;;;;;5041928;28;20233;-47
2022/12/12 07:12:05;;;;;;;29.90;13.70;;;-4.30;99.90;;;;;;5049468;28;20226;-47
2022/12/12 07:14:32;;;;;;;27.33;12.50;;;-4.30;99.90;;;;;;5057255;28;20214;-45
2022/12/12 07:16:58;;;;;;;29.40;14.10;;;-4.30;99.90;;;;;;5044301;28;20221;-59
2022/12/12 07:19:25;;;;;;;32.53;14.53;;;-4.30;99.90;;;;;;5049214;28;20207;-50
2022/12/12 07:21:55;;;;;;;29.77;13.47;;;-4.40;99.90;;;;;;5053295;28;20297;-53
2022/12/12 07:24:22;;;;;;;32.50;14.77;;;-4.40;99.90;;;;;;5043137;28;20217;-46
2022/12/12 07:26:50;;;;;;;28.33;13.97;;;-4.40;99.90;;;;;;5052280;28;20231;-57
2022/12/12 07:29:17;;;;;;;29.63;14.43;;;-4.40;99.90;;;;;;5047148;28;20216;-53
2022/12/12 07:31:44;;;;;;;30.57;14.07;;;-4.50;99.90;;;;;;5061269;28;20229;-55
2022/12/12 07:34:11;;;;;;;29.77;13.33;;;-4.50;99.90;;;;;;5049515;28;20194;-46
2022/12/12 07:36:38;;;;;;;29.27;14.03;;;-4.50;99.90;;;;;;5056400;28;20657;-46
2022/12/12 07:39:05;;;;;;;32.10;14.73;;;-4.40;99.90;;;;;;5044333;28;20337;-45
2022/12/12 07:41:31;;;;;;;29.30;14.70;;;-4.40;99.90;;;;;;5063243;28;20222;-43
2022/12/12 07:44:01;;;;;;;30.70;13.67;;;-4.40;99.90;;;;;;5054133;28;20211;-59
2022/12/12 07:46:28;;;;;;;32.70;13.57;;;-4.40;99.90;;;;;;5047829;28;20249;-53
2022/12/12 07:48:55;;;;;;;28.13;14.80;;;-4.30;99.90;;;;;;5053246;28;20222;-49
2022/12/12 07:51:22;;;;;;;28.37;14.90;;;-4.30;99.90;;;;;;5056963;28;20221;-56
2022/12/12 07:53:49;;;;;;;26.97;15.33;;;-4.30;99.90;;;;;;5058684;28;20210;-45
2022/12/12 07:56:17;;;;;;;31.33;14.60;;;-4.30;99.90;;;;;;5029012;28;20209;-42
2022/12/12 07:58:45;;;;;;;31.77;15.27;;;-4.30;99.90;;;;;;5049964;28;20209;-58
2022/12/12 08:01:15;;;;;;;29.20;14.33;;;-4.30;99.90;;;;;;5053742;28;20225;-56
2022/12/12 08:03:43;;;;;;;26.93;13.77;;;-4.30;99.90;;;;;;5057678;28;20194;-59
2022/12/12 08:06:11;;;;;;;31.23;14.33;;;-4.30;99.90;;;;;;5058480;28;20209;-48
2022/12/12 08:08:38;;;;;;;28.17;14.33;;;-4.30;99.90;;;;;;5041812;28;20205;-49
2022/12/12 08:11:06;;;;;;;24.70;13.83;;;-4.30;99.90;;;;;;5042844;28;20227;-46
2022/12/12 08:13:34;;;;;;;29.37;13.73;;;-4.30;99.90;;;;;;5058107;28;20349;-48
2022/12/12 08:16:02;;;;;;;29.33;14.40;;;-4.30;99.90;;;;;;5052592;28;20252;-45
2022/12/12 08:18:30;;;;;;;31.60;15.17;;;-4.30;99.90;;;;;;5051834;28;20213;-58
2022/12/12 08:20:57;;;;;;;26.17;13.57;;;-4.30;99.90;;;;;;5047830;28;20239;-45
2022/12/12 08:23:23;;;;;;;35.13;15.87;;;-4.20;99.90;;;;;;5052016;28;20199;-57
2022/12/12 08:25:50;;;;;;;32.17;14.67;;;-4.20;99.90;;;;;;5034865;28;20206;-56
2022/12/12 08:28:17;;;;;;;32.57;15.90;;;-4.20;99.90;;;;;;5059081;28;20198;-49
2022/12/12 08:30:49;;;;;;;29.43;16.20;;;-4.20;99.90;;;;;;5058798;28;20222;-53
2022/12/12 08:33:16;;;;;;;26.50;14.63;;;-4.10;99.90;;;;;;5054389;28;20194;-43
2022/12/12 08:35:44;;;;;;;36.53;15.43;;;-4.10;99.90;;;;;;5051808;28;20205;-53
2022/12/12 08:38:11;;;;;;;36.67;17.37;;;-4.00;99.90;;;;;;5048279;28;20203;-46
2022/12/12 08:40:38;;;;;;;34.70;16.33;;;-4.00;99.90;;;;;;5046458;28;20206;-49
2022/12/12 08:43:05;;;;;;;31.53;15.50;;;-4.00;99.90;;;;;;5056588;28;20718;-43
2022/12/12 08:45:31;;;;;;;41.47;17.47;;;-3.90;99.90;;;;;;5056263;28;20199;-47
2022/12/12 08:47:58;;;;;;;40.03;19.90;;;-3.90;99.90;;;;;;5047094;28;20252;-56
2022/12/12 08:50:25;;;;;;;40.70;18.63;;;-3.80;99.90;;;;;;5050959;28;20222;-48
2022/12/12 08:52:54;;;;;;;51.27;19.03;;;-3.80;99.90;;;;;;5056646;28;20668;-58
2022/12/12 08:55:20;;;;;;;105.27;19.37;;;-3.80;99.90;;;;;;5039642;28;20439;-50
2022/12/12 08:57:47;;;;;;;64.03;17.40;;;-3.80;99.90;;;;;;5058832;28;20201;-58
2022/12/12 09:00:15;;;;;;;79.50;17.10;;;-3.80;99.90;;;;;;5056503;28;21045;-50
2022/12/12 09:02:42;;;;;;;47.80;15.43;;;-3.80;99.90;;;;;;5049035;28;20921;-47
2022/12/12 09:05:09;;;;;;;40.47;16.13;;;-3.80;99.90;;;;;;5044328;28;22954;-50
2022/12/12 09:07:36;;;;;;;50.77;17.50;;;-3.80;99.90;;;;;;5049860;28;20676;-48
2022/12/12 09:10:05;;;;;;;45.30;16.13;;;-3.80;99.90;;;;;;5036088;28;24320;-54
2022/12/12 09:12:32;;;;;;;37.83;14.70;;;-3.80;99.90;;;;;;5057635;28;20260;-46
2022/12/12 09:14:58;;;;;;;44.07;16.47;;;-3.80;99.90;;;;;;5052548;28;20194;-59
2022/12/12 09:17:25;;;;;;;34.77;16.57;;;-3.80;99.90;;;;;;5053728;28;20202;-46
2022/12/12 09:19:52;;;;;;;46.90;16.53;;;-3.70;99.90;;;;;;5049921;28;20203;-60
2022/12/12 09:22:20;;;;;;;40.03;17.40;;;-3.70;99.90;;;;;;5048008;28;20234;-48
2022/12/12 09:24:46;;;;;;;40.00;16.00;;;-3.70;99.90;;;;;;5052209;28;20197;-57
2022/12/12 09:27:15;;;;;;;37.20;15.30;;;-3.70;99.90;;;;;;5036107;28;20285;-49
2022/12/12 09:29:41;;;;;;;32.20;15.40;;;-3.70;99.90;;;;;;5047713;28;20221;-51
2022/12/12 09:32:08;;;;;;;33.73;14.50;;;-3.60;99.90;;;;;;5054541;28;20214;-47
2022/12/12 09:34:37;;;;;;;32.70;14.57;;;-3.60;99.90;;;;;;5052693;28;20248;-44
2022/12/12 09:37:04;;;;;;;37.80;13.63;;;-3.60;99.90;;;;;;5044496;28;20286;-45
2022/12/12 09:39:31;;;;;;;33.33;14.17;;;-3.60;99.90;;;;;;5052973;28;20199;-49
2022/12/12 09:41:58;;;;;;;41.47;13.77;;;-3.50;99.90;;;;;;5042662;28;20218;-58
2022/12/12 09:44:26;;;;;;;38.07;13.67;;;-3.40;99.90;;;;;;5057729;28;20276;-46
2022/12/12 09:46:57;;;;;;;41.87;14.93;;;-3.40;99.90;;;;;;5055992;28;20221;-56
2022/12/12 09:49:33;;;;;;;41.60;14.50;;;-3.30;99.90;;;;;;5050923;28;20281;-54
2022/12/12 09:52:01;;;;;;;57.80;14.20;;;-3.20;99.90;;;;;;5044962;28;20222;-60
2022/12/12 09:54:28;;;;;;;62.67;16.07;;;-3.10;99.90;;;;;;5053131;28;20194;-50
2022/12/12 09:57:09;;;;;;;37.53;15.33;;;-3.10;99.90;;;;;;5056440;28;20627;-60
2022/12/12 09:59:41;;;;;;;43.80;15.57;;;-3.10;99.90;;;;;;5044878;28;20205;-48
2022/12/12 10:02:38;;;;;;;37.07;14.77;;;-3.00;99.90;;;;;;5046639;28;20319;-56
2022/12/12 10:05:17;;;;;;;42.10;15.10;;;-3.00;99.90;;;;;;5054406;28;20265;-55
2022/12/12 10:07:51;;;;;;;36.90;15.03;;;-2.90;99.90;;;;;;5048431;28;20214;-51
2022/12/12 10:10:23;;;;;;;51.83;14.53;;;-2.90;99.90;;;;;;5057394;28;20899;-57
2022/12/12 10:12:51;;;;;;;38.80;15.97;;;-2.80;99.90;;;;;;5061034;28;20199;-46
2022/12/12 10:15:29;;;;;;;48.47;15.43;;;-2.80;99.90;;;;;;5044253;28;20203;-59
2022/12/12 10:17:58;;;;;;;49.50;15.97;;;-2.70;99.90;;;;;;5060373;28;20203;-47
2022/12/12 10:20:28;;;;;;;45.80;16.83;;;-2.70;99.90;;;;;;5050127;28;20214;-47
2022/12/12 10:23:00;;;;;;;34.60;14.67;;;-2.60;99.90;;;;;;5059819;28;20604;-58
2022/12/12 10:25:37;;;;;;;53.83;16.03;;;-2.50;99.90;;;;;;5049119;28;20199;-56
2022/12/12 10:28:11;;;;;;;45.60;16.63;;;-2.50;99.90;;;;;;5059793;28;20197;-63
2022/12/12 10:30:54;;;;;;;42.80;15.47;;;-2.40;99.90;;;;;;5048390;28;20237;-52
2022/12/12 10:33:33;;;;;;;33.37;13.97;;;-2.30;99.90;;;;;;5048152;28;20615;-57
2022/12/12 10:36:10;;;;;;;36.07;14.53;;;-2.30;99.90;;;;;;5053481;28;20214;-47
2022/12/12 10:39:03;;;;;;;61.80;14.67;;;-2.30;99.90;;;;;;5040002;28;20202;-58
2022/12/12 10:41:40;;;;;;;54.93;14.70;;;-2.20;99.90;;;;;;5054690;28;20207;-56
2022/12/12 10:44:15;;;;;;;42.80;14.00;;;-2.20;99.90;;;;;;5040301;28;20210;-50
2022/12/12 10:46:47;;;;;;;48.43;15.50;;;-2.20;99.90;;;;;;5042518;28;20203;-59
2022/12/12 10:49:16;;;;;;;64.63;15.77;;;-2.20;99.90;;;;;;5053167;28;20210;-49
2022/12/12 10:51:45;;;;;;;55.90;15.77;;;-2.30;99.90;;;;;;5045519;28;20294;-60
2022/12/12 10:54:16;;;;;;;49.53;15.07;;;-2.30;99.90;;;;;;5044719;28;20207;-43
2022/12/12 10:57:06;;;;;;;45.83;15.23;;;-2.20;99.90;;;;;;5054946;28;20589;-58
2022/12/12 10:59:39;;;;;;;31.07;13.97;;;-2.30;99.90;;;;;;5045085;28;20283;-56
2022/12/12 11:02:24;;;;;;;45.77;13.80;;;-2.30;99.90;;;;;;5056213;28;20218;-46
2022/12/12 11:04:58;;;;;;;44.10;14.97;;;-2.30;99.90;;;;;;5041927;28;20202;-45
2022/12/12 11:07:25;;;;;;;42.27;14.53;;;-2.30;99.90;;;;;;5044126;28;20201;-57
2022/12/12 11:09:54;;;;;;;43.10;16.03;;;-2.30;99.90;;;;;;5046553;28;20210;-47
2022/12/12 11:12:21;;;;;;;35.47;15.53;;;-2.20;99.90;;;;;;5045793;28;20231;-47
2022/12/12 11:14:50;;;;;;;37.87;16.57;;;-2.10;99.90;;;;;;5053357;28;20623;-45
2022/12/12 11:17:25;;;;;;;42.03;17.23;;;-2.10;99.90;;;;;;5052192;28;20194;-47
2022/12/12 11:19:54;;;;;;;43.13;17.20;;;-2.00;99.90;;;;;;5051741;28;20286;-57
2022/12/12 11:22:22;;;;;;;45.20;16.50;;;-2.00;99.90;;;;;;5046651;28;20211;-59
2022/12/12 11:24:50;;;;;;;45.13;16.77;;;-1.90;99.90;;;;;;5050924;28;20268;-52
2022/12/12 11:27:22;;;;;;;50.77;18.70;;;-1.80;99.90;;;;;;5052071;28;20199;-64
2022/12/12 11:29:53;;;;;;;56.83;19.30;;;-1.80;99.90;;;;;;5045578;28;20208;-59
2022/12/12 11:32:24;;;;;;;37.50;16.13;;;-1.70;99.90;;;;;;5044921;28;20369;-49
2022/12/12 11:34:55;;;;;;;37.53;17.33;;;-1.70;99.90;;;;;;5055034;28;20213;-45
2022/12/12 11:37:23;;;;;;;42.13;17.17;;;-1.70;99.90;;;;;;5047148;28;20938;-48
2022/12/12 11:39:52;;;;;;;35.27;15.47;;;-1.70;99.90;;;;;;5048732;28;20391;-52
2022/12/12 11:42:24;;;;;;;39.73;16.57;;;-1.70;99.90;;;;;;5044049;28;20215;-49
2022/12/12 11:45:00;;;;;;;32.40;15.67;;;-1.70;99.90;;;;;;5041428;28;20211;-43
2022/12/12 11:47:34;;;;;;;42.17;16.47;;;-1.70;99.90;;;;;;5053686;28;20194;-50
2022/12/12 11:50:01;;;;;;;40.73;16.17;;;-1.70;99.90;;;;;;5047403;28;20226;-58
2022/12/12 11:52:30;;;;;;;35.03;15.87;;;-1.60;99.90;;;;;;5056906;28;20221;-49
2022/12/12 11:54:58;;;;;;;41.33;16.90;;;-1.60;99.90;;;;;;5051231;28;20278;-46
2022/12/12 11:57:39;;;;;;;41.33;16.97;;;-1.70;99.90;;;;;;5036434;28;20210;-59
2022/12/12 12:00:13;;;;;;;45.50;18.03;;;-1.70;99.90;;;;;;5036463;28;20208;-50
2022/12/12 12:03:13;;;;;;;43.17;17.80;;;-1.70;99.90;;;;;;5048939;28;20944;-47
2022/12/12 12:05:52;;;;;;;42.43;18.00;;;-1.60;99.90;;;;;;5043666;28;20407;-49
2022/12/12 12:08:39;;;;;;;39.50;17.97;;;-1.50;99.90;;;;;;5052960;28;20195;-57
2022/12/12 12:11:19;;;;;;;40.37;16.67;;;-1.50;99.90;;;;;;5058037;28;20242;-49
2022/12/12 12:14:13;;;;;;;37.10;16.40;;;-1.50;99.90;;;;;;5055265;28;20199;-53
2022/12/12 12:16:47;;;;;;;42.70;18.47;;;-1.50;99.90;;;;;;5042439;28;20907;-45
2022/12/12 12:19:22;;;;;;;39.33;16.83;;;-1.40;99.90;;;;;;5048695;28;20304;-58
2022/12/12 12:22:00;;;;;;;41.17;17.90;;;-1.40;99.90;;;;;;5051037;28;20218;-51
2022/12/12 12:24:45;;;;;;;42.70;17.90;;;-1.40;99.90;;;;;;5048429;28;20280;-59
2022/12/12 12:27:19;;;;;;;36.93;17.17;;;-1.40;99.90;;;;;;5048402;28;20202;-60
2022/12/12 12:30:17;;;;;;;36.30;16.53;;;-1.40;99.90;;;;;;5055207;28;20269;-48
2022/12/12 12:33:02;;;;;;;40.93;16.83;;;-1.30;99.90;;;;;;5044298;28;20200;-47
2022/12/12 12:35:32;;;;;;;44.73;18.07;;;-1.30;99.90;;;;;;5042140;28;20199;-57
2022/12/12 12:38:13;;;;;;;46.80;19.13;;;-1.30;99.90;;;;;;5056425;28;20287;-49
2022/12/12 12:41:16;;;;;;;84.33;25.63;;;-1.20;99.90;;;;;;5042483;28;20992;-47
2022/12/12 12:43:56;;;;;;;34.57;16.10;;;-1.20;99.90;;;;;;5044894;28;20196;-48
2022/12/12 12:46:34;;;;;;;49.30;19.37;;;-1.20;99.90;;;;;;5040785;28;20677;-62
2022/12/12 12:49:08;;;;;;;38.57;16.77;;;-1.20;99.90;;;;;;5056142;28;20203;-55
2022/12/12 12:51:42;;;;;;;35.87;17.17;;;-1.20;99.90;;;;;;5043184;28;20210;-49
2022/12/12 12:54:16;;;;;;;37.30;16.97;;;-1.10;99.90;;;;;;5054198;28;20709;-51
2022/12/12 12:56:49;;;;;;;35.07;16.30;;;-1.10;99.90;;;;;;5045291;28;20869;-43
2022/12/12 12:59:19;;;;;;;39.37;17.63;;;-1.10;99.90;;;;;;5048680;28;20205;-60
2022/12/12 13:01:49;;;;;;;33.43;16.07;;;-1.10;99.90;;;;;;5041207;28;20223;-59